createdAt,value
2023-06-07T00:02:33.017Z,7.23
2023-06-07T00:05:40.367Z,7.00
2023-06-07T00:08:44.818Z,7.10
2023-06-07T00:11:47.213Z,7.10
2023-06-07T00:14:49.601Z,6.82
2023-06-07T00:17:52.181Z,7.45
2023-06-07T00:20:54.930Z,7.15
2023-06-07T00:23:57.339Z,6.32
2023-06-07T00:26:59.753Z,7.13
2023-06-07T00:30:05.034Z,7.63
2023-06-07T00:33:08.538Z,7.33
2023-06-07T00:36:10.970Z,7.38
2023-06-07T00:39:13.455Z,6.63
2023-06-07T00:42:16.055Z,7.37
2023-06-07T00:45:18.546Z,7.05
2023-06-07T00:48:21.186Z,7.40
2023-06-07T00:51:24.090Z,8.10
2023-06-07T00:54:28.235Z,7.15
2023-06-07T00:57:33.898Z,8.30
2023-06-07T01:00:36.617Z,7.45
2023-06-07T01:03:39.290Z,7.37
2023-06-07T01:06:41.810Z,8.00
2023-06-07T01:09:44.808Z,7.45
2023-06-07T01:12:50.714Z,7.43
2023-06-07T01:15:53.401Z,7.85
2023-06-07T01:18:57.763Z,8.00
2023-06-07T01:22:08.238Z,7.65
2023-06-07T01:25:10.965Z,7.63
2023-06-07T01:28:15.631Z,7.45
2023-06-07T01:31:18.926Z,7.75
2023-06-07T01:34:21.620Z,7.63
2023-06-07T01:37:26.011Z,7.35
2023-06-07T01:40:31.417Z,7.50
2023-06-07T01:43:35.097Z,7.93
2023-06-07T01:46:38.709Z,7.68
2023-06-07T01:49:41.172Z,7.10
2023-06-07T01:52:43.571Z,7.15
2023-06-07T01:55:46.107Z,7.13
2023-06-07T01:59:04.402Z,6.53
2023-06-07T02:02:09.730Z,6.75
2023-06-07T02:05:21.473Z,6.03
2023-06-07T02:08:39.035Z,6.95
2023-06-07T02:11:43.477Z,7.32
2023-06-07T02:14:47.212Z,7.13
2023-06-07T02:18:02.385Z,6.85
2023-06-07T02:21:05.198Z,6.90
2023-06-07T02:24:08.235Z,6.90
2023-06-07T02:27:10.792Z,7.82
2023-06-07T02:30:14.560Z,7.80
2023-06-07T02:33:17.303Z,7.13
2023-06-07T02:36:23.361Z,6.93
2023-06-07T02:39:25.812Z,7.47
2023-06-07T02:42:28.649Z,6.78
2023-06-07T02:45:32.337Z,6.80
2023-06-07T02:48:34.741Z,6.85
2023-06-07T02:51:38.615Z,6.72
2023-06-07T02:54:42.521Z,7.43
2023-06-07T02:57:45.275Z,6.95
2023-06-07T03:00:49.866Z,6.75
2023-06-07T03:03:53.020Z,6.68
2023-06-07T03:06:56.840Z,7.20
2023-06-07T03:10:06.995Z,7.68
2023-06-07T03:13:09.822Z,7.53
2023-06-07T03:16:13.660Z,7.77
2023-06-07T03:19:25.757Z,6.53
2023-06-07T03:22:30.266Z,7.07
2023-06-07T03:25:32.848Z,6.07
2023-06-07T03:28:35.863Z,6.55
2023-06-07T03:31:40.111Z,6.07
2023-06-07T03:34:46.662Z,6.82
2023-06-07T03:37:49.726Z,7.20
2023-06-07T03:40:57.760Z,8.02
2023-06-07T03:44:02.284Z,7.22
2023-06-07T03:47:06.129Z,6.87
2023-06-07T03:50:09.183Z,6.63
2023-06-07T03:53:13.693Z,7.03
2023-06-07T03:56:18.679Z,6.85
2023-06-07T03:59:22.013Z,7.18
2023-06-07T04:02:24.868Z,6.78
2023-06-07T04:05:27.383Z,6.63
2023-06-07T04:08:31.054Z,6.63
2023-06-07T04:11:33.574Z,6.90
2023-06-07T04:14:36.211Z,7.20
2023-06-07T04:17:38.765Z,6.27
2023-06-07T04:20:42.726Z,6.15
2023-06-07T04:23:47.767Z,6.00
2023-06-07T04:26:57.028Z,5.65
2023-06-07T04:30:03.182Z,5.95
2023-06-07T04:33:11.788Z,5.97
2023-06-07T04:36:20.121Z,5.82
2023-06-07T04:39:23.217Z,5.90
2023-06-07T04:42:28.522Z,6.47
2023-06-07T04:45:42.495Z,6.15
2023-06-07T04:48:47.195Z,5.47
2023-06-07T04:51:51.911Z,5.95
2023-06-07T04:54:58.075Z,5.40
2023-06-07T04:58:05.766Z,6.18
2023-06-07T05:01:12.441Z,7.88
2023-06-07T05:04:18.003Z,6.70
2023-06-07T05:07:27.893Z,7.35
2023-06-07T05:10:31.929Z,6.13
2023-06-07T05:13:37.107Z,7.53
2023-06-07T05:16:42.456Z,6.35
2023-06-07T05:19:46.397Z,6.47
2023-06-07T05:22:49.337Z,7.40
2023-06-07T05:25:52.368Z,6.70
2023-06-07T05:28:54.969Z,6.18
2023-06-07T05:31:58.088Z,6.72
2023-06-07T05:35:01.227Z,7.25
2023-06-07T05:38:04.974Z,6.13
2023-06-07T05:41:08.973Z,5.70
2023-06-07T05:44:11.473Z,6.55
2023-06-07T05:47:14.586Z,5.57
2023-06-07T05:50:20.495Z,5.80
2023-06-07T05:53:24.566Z,6.07
2023-06-07T05:56:28.960Z,6.18
2023-06-07T05:59:31.631Z,5.72
2023-06-07T06:02:35.948Z,6.10
2023-06-07T06:05:38.414Z,6.70
2023-06-07T06:08:40.812Z,5.95
2023-06-07T06:11:43.294Z,7.03
2023-06-07T06:14:45.688Z,7.75
2023-06-07T06:17:50.950Z,7.18
2023-06-07T06:20:53.408Z,6.93
2023-06-07T06:23:55.833Z,7.35
2023-06-07T06:26:58.220Z,7.13
2023-06-07T06:30:00.661Z,7.57
2023-06-07T06:33:03.421Z,6.53
2023-06-07T06:36:05.897Z,6.18
2023-06-07T06:39:09.338Z,6.18
2023-06-07T06:42:11.851Z,5.50
2023-06-07T06:45:43.950Z,6.53
2023-06-07T06:48:55.793Z,6.10
2023-06-07T06:52:05.885Z,6.43
2023-06-07T06:55:08.797Z,5.60
2023-06-07T06:58:11.409Z,5.90
2023-06-07T07:01:18.155Z,7.13
2023-06-07T07:04:20.718Z,6.45
2023-06-07T07:07:23.176Z,6.72
2023-06-07T07:10:25.692Z,7.28
2023-06-07T07:13:28.134Z,6.60
2023-06-07T07:16:32.165Z,5.88
2023-06-07T07:19:34.581Z,6.35
2023-06-07T07:22:36.933Z,7.30
2023-06-07T07:25:39.939Z,5.88
2023-06-07T07:28:42.420Z,5.65
2023-06-07T07:31:44.999Z,6.30
2023-06-07T07:34:47.475Z,7.03
2023-06-07T07:37:50.604Z,6.18
2023-06-07T07:40:52.994Z,5.90
2023-06-07T07:43:58.375Z,4.60
2023-06-07T07:47:01.317Z,5.38
2023-06-07T07:50:06.203Z,5.22
2023-06-07T07:53:08.971Z,5.77
2023-06-07T07:56:11.433Z,5.20
2023-06-07T07:59:13.896Z,5.30
2023-06-07T08:02:16.577Z,4.85
2023-06-07T08:05:18.988Z,5.68
2023-06-07T08:08:22.107Z,5.72
2023-06-07T08:11:25.664Z,4.20
2023-06-07T08:14:28.187Z,4.57
2023-06-07T08:17:32.034Z,5.20
2023-06-07T08:20:34.607Z,4.75
2023-06-07T08:23:37.586Z,5.40
2023-06-07T08:26:40.030Z,4.70
2023-06-07T08:29:42.429Z,7.80
2023-06-07T08:32:46.558Z,5.60
2023-06-07T08:35:48.979Z,5.78
2023-06-07T08:38:51.389Z,5.93
2023-06-07T08:41:53.997Z,4.93
2023-06-07T08:44:56.427Z,5.27
2023-06-07T08:48:05.885Z,6.13
2023-06-07T08:51:10.112Z,5.10
2023-06-07T08:54:17.004Z,5.00
2023-06-07T08:57:20.125Z,5.25
2023-06-07T09:00:26.813Z,5.80
2023-06-07T09:03:29.733Z,5.35
2023-06-07T09:06:35.605Z,6.25
2023-06-07T09:09:41.269Z,5.65
2023-06-07T09:12:46.718Z,5.13
2023-06-07T09:15:50.588Z,4.60
2023-06-07T09:18:56.616Z,4.88
2023-06-07T09:21:59.182Z,5.10
2023-06-07T09:25:07.978Z,5.40
2023-06-07T09:28:12.500Z,5.55
2023-06-07T09:31:30.580Z,5.00
2023-06-07T09:34:33.121Z,5.22
2023-06-07T09:37:45.724Z,5.13
2023-06-07T09:40:52.450Z,5.40
2023-06-07T09:43:57.809Z,5.43
2023-06-07T09:47:04.473Z,5.27
2023-06-07T09:50:08.978Z,6.07
2023-06-07T09:53:11.539Z,6.25
2023-06-07T09:56:22.790Z,6.40
2023-06-07T09:59:25.482Z,6.35
2023-06-07T10:02:29.971Z,5.25
2023-06-07T10:05:32.437Z,6.07
2023-06-07T10:08:38.337Z,5.45
2023-06-07T10:11:47.008Z,5.63
2023-06-07T10:14:50.127Z,5.05
2023-06-07T10:17:58.782Z,4.43
2023-06-07T10:21:12.490Z,4.22
2023-06-07T10:24:21.901Z,4.18
2023-06-07T10:27:28.097Z,4.73
2023-06-07T10:30:33.573Z,4.07
2023-06-07T10:33:37.130Z,3.35
2023-06-07T10:36:40.840Z,3.88
2023-06-07T10:39:43.324Z,3.15
2023-06-07T10:42:47.970Z,3.63
2023-06-07T10:46:26.413Z,3.80
2023-06-07T10:49:38.225Z,3.43
2023-06-07T10:52:56.441Z,3.70
2023-06-07T10:56:27.980Z,3.50
2023-06-07T10:59:30.690Z,3.50
2023-06-07T11:02:33.441Z,4.28
2023-06-07T11:05:54.636Z,3.75
2023-06-07T11:09:20.526Z,3.45
2023-06-07T11:12:45.998Z,3.90
2023-06-07T11:15:48.676Z,3.35
2023-06-07T11:18:55.755Z,3.08
2023-06-07T11:22:05.633Z,2.90
2023-06-07T11:25:14.958Z,2.65
2023-06-07T11:28:22.312Z,3.20
2023-06-07T11:31:24.743Z,2.80
2023-06-07T11:34:30.413Z,2.53
2023-06-07T11:37:32.940Z,3.28
2023-06-07T11:40:35.988Z,2.70
2023-06-07T11:43:38.546Z,2.85
2023-06-07T11:46:41.059Z,2.83
2023-06-07T11:49:43.482Z,3.10
2023-06-07T11:52:48.054Z,3.10
2023-06-07T11:55:50.835Z,3.17
2023-06-07T11:58:53.202Z,3.17
2023-06-07T12:01:56.711Z,3.03
2023-06-07T12:04:59.549Z,3.15
2023-06-07T12:08:07.255Z,3.42
2023-06-07T12:11:09.681Z,3.38
2023-06-07T12:14:13.086Z,3.53
2023-06-07T12:17:15.554Z,3.35
2023-06-07T12:20:18.036Z,3.70
2023-06-07T12:23:21.758Z,3.43
2023-06-07T12:26:32.357Z,2.95
2023-06-07T12:29:35.155Z,3.10
2023-06-07T12:32:37.922Z,3.70
2023-06-07T12:35:40.757Z,2.55
2023-06-07T12:38:44.294Z,2.70
2023-06-07T12:41:46.631Z,2.42
2023-06-07T12:44:50.141Z,2.70
2023-06-07T12:47:52.966Z,2.53
2023-06-07T12:50:55.427Z,2.97
2023-06-07T12:53:57.885Z,2.80
2023-06-07T12:57:00.273Z,3.10
2023-06-07T13:00:03.278Z,2.97
2023-06-07T13:03:06.077Z,3.00
2023-06-07T13:06:09.052Z,2.85
2023-06-07T13:09:12.391Z,2.92
2023-06-07T13:12:16.246Z,2.78
2023-06-07T13:15:19.080Z,3.10
2023-06-07T13:18:21.771Z,3.10
2023-06-07T13:21:24.424Z,3.05
2023-06-07T13:24:26.896Z,2.97
2023-06-07T13:27:29.297Z,2.72
2023-06-07T13:30:32.744Z,3.08
2023-06-07T13:33:35.192Z,2.47
2023-06-07T13:36:38.018Z,2.90
2023-06-07T13:39:40.709Z,3.53
2023-06-07T13:42:43.097Z,2.65
2023-06-07T13:45:46.656Z,3.28
2023-06-07T13:48:49.462Z,3.38
2023-06-07T13:51:51.882Z,3.30
2023-06-07T13:54:55.854Z,3.17
2023-06-07T13:57:58.322Z,3.33
2023-06-07T14:01:04.033Z,2.90
2023-06-07T14:04:07.349Z,3.83
2023-06-07T14:07:09.817Z,3.83
2023-06-07T14:10:13.039Z,4.13
2023-06-07T14:13:16.055Z,4.22
2023-06-07T14:16:20.491Z,3.60
2023-06-07T14:19:22.989Z,3.80
2023-06-07T14:22:25.849Z,3.88
2023-06-07T14:25:28.256Z,4.33
2023-06-07T14:28:30.681Z,4.15
2023-06-07T14:31:33.261Z,4.38
2023-06-07T14:34:35.737Z,4.90
2023-06-07T14:37:38.170Z,4.70
2023-06-07T14:40:40.628Z,4.43
2023-06-07T14:43:43.149Z,5.38
2023-06-07T14:46:45.668Z,5.88
2023-06-07T14:49:48.146Z,5.00
2023-06-07T14:52:50.591Z,4.82
2023-06-07T14:55:53.047Z,4.97
2023-06-07T14:58:55.489Z,5.88
2023-06-07T15:01:57.954Z,5.28
2023-06-07T15:05:01.175Z,5.80
2023-06-07T15:08:06.134Z,5.60
2023-06-07T15:11:08.632Z,5.00
2023-06-07T15:14:11.293Z,5.53
2023-06-07T15:17:13.799Z,5.28
2023-06-07T15:20:16.267Z,5.25
2023-06-07T15:23:18.763Z,4.97
2023-06-07T15:26:22.051Z,4.30
2023-06-07T15:29:24.630Z,4.85
2023-06-07T15:32:27.097Z,4.57
2023-06-07T15:35:29.562Z,4.80
2023-06-07T15:38:38.313Z,4.50
2023-06-07T15:41:40.846Z,5.10
2023-06-07T15:44:45.972Z,4.72
2023-06-07T15:48:02.270Z,4.50
2023-06-07T15:51:04.798Z,4.43
2023-06-07T15:54:07.235Z,4.80
2023-06-07T15:57:09.753Z,4.67
2023-06-07T16:00:27.373Z,4.68
2023-06-07T16:03:50.767Z,4.53
2023-06-07T16:06:57.301Z,4.73
2023-06-07T16:09:59.828Z,5.38
2023-06-07T16:13:02.310Z,4.78
2023-06-07T16:16:04.966Z,5.05
2023-06-07T16:19:07.508Z,4.45
2023-06-07T16:22:10.177Z,5.25
2023-06-07T16:25:12.859Z,4.15
2023-06-07T16:28:16.859Z,4.87
2023-06-07T16:31:19.458Z,4.80
2023-06-07T16:34:21.907Z,5.32
2023-06-07T16:37:24.326Z,5.47
2023-06-07T16:40:26.871Z,4.55
2023-06-07T16:43:29.345Z,4.38
2023-06-07T16:46:32.224Z,4.85
2023-06-07T16:49:34.788Z,4.63
2023-06-07T16:52:37.184Z,4.32
2023-06-07T16:55:39.656Z,4.95
2023-06-07T16:58:42.098Z,4.93
2023-06-07T17:01:44.559Z,4.85
2023-06-07T17:04:47.171Z,7.32
2023-06-07T17:07:51.343Z,10.67
2023-06-07T17:10:53.786Z,7.90
2023-06-07T17:13:56.592Z,8.00
2023-06-07T17:16:59.022Z,7.60
2023-06-07T17:20:01.736Z,5.13
2023-06-07T17:23:04.233Z,5.05
2023-06-07T17:26:07.889Z,5.95
2023-06-07T17:29:27.438Z,5.57
2023-06-07T17:32:31.838Z,4.95
2023-06-07T17:35:34.403Z,4.68
2023-06-07T17:38:36.917Z,4.70
2023-06-07T17:41:40.469Z,4.70
2023-06-07T17:44:42.966Z,5.05
2023-06-07T17:47:51.742Z,4.90
2023-06-07T17:50:54.500Z,4.43
2023-06-07T17:53:57.013Z,5.25
2023-06-07T17:56:59.494Z,4.50
2023-06-07T18:00:01.965Z,1.97
2023-06-07T18:03:07.096Z,2.03
2023-06-07T18:06:09.687Z,2.05
2023-06-07T18:09:12.150Z,2.50
2023-06-07T18:12:15.525Z,2.25
2023-06-07T18:15:18.008Z,2.45
2023-06-07T18:18:20.948Z,2.15
2023-06-07T18:21:23.376Z,2.20
2023-06-07T18:24:25.895Z,2.80
2023-06-07T18:27:29.329Z,2.83
2023-06-07T18:30:32.535Z,2.10
2023-06-07T18:33:36.748Z,2.45
2023-06-07T18:36:39.247Z,2.10
2023-06-07T18:39:41.717Z,2.20
2023-06-07T18:42:44.248Z,2.63
2023-06-07T18:45:48.867Z,2.78
2023-06-07T18:48:51.680Z,2.72
2023-06-07T18:51:55.037Z,2.35
2023-06-07T18:54:57.646Z,2.83
2023-06-07T18:58:00.115Z,1.90
2023-06-07T19:01:02.615Z,2.30
2023-06-07T19:04:05.150Z,2.90
2023-06-07T19:07:07.846Z,2.65
2023-06-07T19:10:10.820Z,2.60
2023-06-07T19:13:14.544Z,3.00
2023-06-07T19:16:17.330Z,3.85
2023-06-07T19:19:19.823Z,3.20
2023-06-07T19:22:22.293Z,2.95
2023-06-07T19:25:25.764Z,4.35
2023-06-07T19:28:28.290Z,5.45
2023-06-07T19:31:30.852Z,4.30
2023-06-07T19:34:34.095Z,4.47
2023-06-07T19:37:36.590Z,4.25
2023-06-07T19:40:39.036Z,4.20
2023-06-07T19:43:41.915Z,4.20
2023-06-07T19:46:44.462Z,4.20
2023-06-07T19:49:47.446Z,5.00
2023-06-07T19:52:49.974Z,3.83
2023-06-07T19:55:52.444Z,3.80
2023-06-07T19:58:54.943Z,3.92
2023-06-07T20:01:58.720Z,4.20
2023-06-07T20:05:01.203Z,3.80
2023-06-07T20:08:03.872Z,4.13
2023-06-07T20:11:06.319Z,3.47
2023-06-07T20:14:10.651Z,3.75
2023-06-07T20:17:13.760Z,3.67
2023-06-07T20:20:16.702Z,4.05
2023-06-07T20:23:19.174Z,3.75
2023-06-07T20:26:21.643Z,3.78
2023-06-07T20:29:24.073Z,3.50
2023-06-07T20:32:26.826Z,3.80
2023-06-07T20:35:32.371Z,3.90
2023-06-07T20:38:35.056Z,3.80
2023-06-07T20:41:37.451Z,3.70
2023-06-07T20:44:52.052Z,3.75
2023-06-07T20:47:55.707Z,3.97
2023-06-07T20:50:58.366Z,3.88
2023-06-07T20:54:01.052Z,3.50
2023-06-07T20:57:03.578Z,3.95
2023-06-07T21:00:07.026Z,4.15
2023-06-07T21:03:11.940Z,3.83
2023-06-07T21:06:14.928Z,4.50
2023-06-07T21:09:17.404Z,4.32
2023-06-07T21:12:19.851Z,4.37
2023-06-07T21:15:22.258Z,4.53
2023-06-07T21:18:25.066Z,4.40
2023-06-07T21:21:27.591Z,4.05
2023-06-07T21:24:30.006Z,4.68
2023-06-07T21:27:32.402Z,4.80
2023-06-07T21:30:34.890Z,5.10
2023-06-07T21:33:37.335Z,4.80
2023-06-07T21:36:39.832Z,5.35
2023-06-07T21:39:42.208Z,5.18
2023-06-07T21:42:44.580Z,6.53
2023-06-07T21:45:46.981Z,5.07
2023-06-07T21:48:49.455Z,5.35
2023-06-07T21:51:52.093Z,5.38
2023-06-07T21:54:54.506Z,5.60
2023-06-07T21:57:56.937Z,5.03
2023-06-07T22:00:59.415Z,5.18
2023-06-07T22:04:01.838Z,5.30
2023-06-07T22:07:04.339Z,5.75
2023-06-07T22:10:07.366Z,5.35
2023-06-07T22:13:10.032Z,5.60
2023-06-07T22:16:13.813Z,5.38
2023-06-07T22:19:19.897Z,6.20
2023-06-07T22:22:25.555Z,5.90
2023-06-07T22:25:40.282Z,5.28
2023-06-07T22:28:43.675Z,5.78
2023-06-07T22:31:46.208Z,5.28
2023-06-07T22:34:50.238Z,5.90
2023-06-07T22:37:52.797Z,5.85
2023-06-07T22:40:55.836Z,5.88
2023-06-07T22:43:58.973Z,6.03
2023-06-07T22:47:01.405Z,5.03
2023-06-07T22:50:04.486Z,5.70
2023-06-07T22:53:15.427Z,6.20
2023-06-07T22:56:17.959Z,6.80
2023-06-07T22:59:20.678Z,6.70
2023-06-07T23:02:23.153Z,5.93
2023-06-07T23:05:28.319Z,6.47
2023-06-07T23:08:33.874Z,6.32
2023-06-07T23:11:36.309Z,6.60
2023-06-07T23:14:38.750Z,6.37
2023-06-07T23:17:42.557Z,5.90
2023-06-07T23:20:46.473Z,6.75
2023-06-07T23:23:51.238Z,6.68
2023-06-07T23:26:56.424Z,6.32
2023-06-07T23:29:58.929Z,6.47
2023-06-07T23:33:01.433Z,6.28
2023-06-07T23:36:04.369Z,6.67
2023-06-07T23:39:06.775Z,6.88
2023-06-07T23:42:09.212Z,6.07
2023-06-07T23:45:12.457Z,6.57
2023-06-07T23:48:15.077Z,6.65
2023-06-07T23:51:17.660Z,6.70
2023-06-07T23:54:22.359Z,6.55
2023-06-07T23:57:24.826Z,6.53
